Time;durP1;ratioP1;P1;durP2;ratioP2;P2;SDS_P1;SDS_P2;PMS_P1;PMS_P2;Temp;Humidity;BMP_temperature;BMP_pressure;BME280_temperature;BME280_humidity;BME280_pressure;Samples;Min_cycle;Max_cycle;Signal;HPM_P1;HPM_P2
2024/01/12 00:00:38;;;;;;;93.97;37.43;;;0.80;94.90;;;;;;804405;177;26443;-76
2024/01/12 00:03:05;;;;;;;100.47;39.63;;;0.80;94.80;;;;;;804186;178;28062;-74
2024/01/12 00:05:32;;;;;;;94.43;39.23;;;0.80;94.90;;;;;;804542;178;26435;-76
2024/01/12 00:07:58;;;;;;;119.47;45.27;;;0.70;94.90;;;;;;801033;177;26479;-75
2024/01/12 00:10:25;;;;;;;139.87;48.90;;;0.70;95.00;;;;;;797344;177;26559;-75
2024/01/12 00:12:51;;;;;;;112.77;44.13;;;0.70;95.10;;;;;;795462;178;26494;-75
2024/01/12 00:15:18;;;;;;;134.50;50.73;;;0.70;95.20;;;;;;798875;177;26426;-74
2024/01/12 00:17:45;;;;;;;112.23;41.77;;;0.70;95.30;;;;;;797681;178;26506;-74
2024/01/12 00:20:11;;;;;;;119.73;43.43;;;0.70;95.40;;;;;;794982;178;26989;-73
2024/01/12 00:22:38;;;;;;;108.33;41.60;;;0.70;95.50;;;;;;810303;177;26443;-75
2024/01/12 00:25:05;;;;;;;105.10;41.13;;;0.70;95.60;;;;;;808647;177;27046;-74
2024/01/12 00:27:31;;;;;;;134.40;47.93;;;0.70;95.70;;;;;;796154;178;26450;-75
2024/01/12 00:29:58;;;;;;;114.20;42.30;;;0.70;95.70;;;;;;794376;181;26983;-74
2024/01/12 00:32:25;;;;;;;120.77;44.13;;;0.60;95.70;;;;;;794973;178;26432;-74
2024/01/12 00:34:51;;;;;;;114.30;42.23;;;0.60;96.00;;;;;;798281;178;26484;-74
2024/01/12 00:37:18;;;;;;;106.63;43.57;;;0.60;96.10;;;;;;802512;178;26477;-74
2024/01/12 00:39:44;;;;;;;134.27;45.97;;;0.60;96.20;;;;;;805593;178;26482;-73
2024/01/12 00:42:11;;;;;;;118.27;44.40;;;0.60;96.30;;;;;;804269;177;26478;-74
2024/01/12 00:44:38;;;;;;;108.70;42.90;;;0.60;96.40;;;;;;804779;177;26499;-75
2024/01/12 00:47:04;;;;;;;106.70;42.63;;;0.60;96.20;;;;;;801591;177;27024;-75
2024/01/12 00:49:31;;;;;;;105.60;40.67;;;0.60;96.20;;;;;;805833;178;26447;-74
2024/01/12 00:51:57;;;;;;;100.87;41.10;;;0.60;96.30;;;;;;804478;178;26478;-75
2024/01/12 00:54:26;;;;;;;113.43;42.87;;;0.50;96.40;;;;;;807936;176;26417;-74
2024/01/12 00:56:51;;;;;;;109.90;44.43;;;0.50;96.60;;;;;;802606;176;26810;-75
2024/01/12 00:59:19;;;;;;;118.60;46.37;;;0.50;96.70;;;;;;805184;178;26419;-74
2024/01/12 01:01:44;;;;;;;119.40;47.50;;;0.50;96.70;;;;;;803867;178;26451;-74
2024/01/12 01:04:10;;;;;;;117.87;46.20;;;0.50;96.80;;;;;;797494;178;27015;-75
2024/01/12 01:06:37;;;;;;;110.87;44.90;;;0.50;96.80;;;;;;800263;178;26496;-72
2024/01/12 01:09:04;;;;;;;116.23;45.93;;;0.60;96.80;;;;;;795214;180;26984;-75
2024/01/12 01:11:30;;;;;;;104.90;44.87;;;0.60;96.80;;;;;;795034;179;26548;-75
2024/01/12 01:13:57;;;;;;;119.23;47.00;;;0.50;96.70;;;;;;802771;178;26446;-74
2024/01/12 01:16:23;;;;;;;117.70;48.40;;;0.60;96.80;;;;;;800122;178;26431;-74
2024/01/12 01:18:50;;;;;;;120.00;46.00;;;0.60;96.80;;;;;;799964;178;26790;-72
2024/01/12 01:21:17;;;;;;;106.03;45.00;;;0.60;96.80;;;;;;794744;180;26492;-75
2024/01/12 01:23:43;;;;;;;103.87;44.80;;;0.70;96.70;;;;;;800909;177;26430;-74
2024/01/12 01:26:10;;;;;;;122.20;47.77;;;0.70;96.50;;;;;;799238;177;27014;-75
2024/01/12 01:28:36;;;;;;;124.43;48.03;;;0.70;96.60;;;;;;799667;177;26493;-74
2024/01/12 01:31:03;;;;;;;119.63;47.93;;;0.60;96.50;;;;;;800791;178;27033;-74
2024/01/12 01:33:30;;;;;;;120.37;46.40;;;0.60;96.50;;;;;;800247;178;26432;-72
2024/01/12 01:35:56;;;;;;;124.93;47.90;;;0.60;96.50;;;;;;799272;178;27016;-75
2024/01/12 01:38:23;;;;;;;108.80;46.13;;;0.70;96.70;;;;;;801565;178;26474;-75
2024/01/12 01:40:49;;;;;;;104.97;44.80;;;0.60;96.60;;;;;;799835;177;28158;-75
2024/01/12 01:43:16;;;;;;;118.73;46.17;;;0.70;96.70;;;;;;800428;178;26486;-75
2024/01/12 01:45:43;;;;;;;115.63;46.77;;;0.60;96.70;;;;;;802826;177;26498;-75
2024/01/12 01:48:09;;;;;;;110.47;46.60;;;0.60;96.70;;;;;;804706;177;26488;-74
2024/01/12 01:50:36;;;;;;;112.90;47.13;;;0.70;96.70;;;;;;800716;178;26503;-75
2024/01/12 01:53:03;;;;;;;109.77;44.67;;;0.70;96.80;;;;;;801621;177;27105;-75
2024/01/12 01:55:29;;;;;;;115.60;48.57;;;0.70;96.80;;;;;;802755;176;26488;-75
2024/01/12 01:57:56;;;;;;;128.87;49.50;;;0.70;96.70;;;;;;802205;177;26478;-72
2024/01/12 02:00:22;;;;;;;129.20;49.03;;;0.70;97.00;;;;;;803845;177;26436;-75
2024/01/12 02:02:49;;;;;;;110.23;47.10;;;0.70;96.70;;;;;;799441;178;26480;-75
2024/01/12 02:05:16;;;;;;;110.73;46.03;;;0.70;96.70;;;;;;798586;177;26964;-75
2024/01/12 02:07:42;;;;;;;121.10;47.47;;;0.70;96.80;;;;;;797127;178;26447;-75
2024/01/12 02:10:09;;;;;;;108.27;46.93;;;0.70;96.70;;;;;;801385;178;26471;-75
2024/01/12 02:12:37;;;;;;;124.00;49.23;;;0.70;96.80;;;;;;798233;178;27007;-75
2024/01/12 02:15:06;;;;;;;126.97;48.20;;;0.70;96.80;;;;;;800011;178;26420;-75
2024/01/12 02:17:30;;;;;;;118.63;48.93;;;0.70;96.90;;;;;;800202;178;26425;-75
2024/01/12 02:19:58;;;;;;;129.87;50.27;;;0.70;96.90;;;;;;801201;178;28100;-75
2024/01/12 02:22:25;;;;;;;120.23;48.57;;;0.60;96.90;;;;;;800174;178;26437;-74
2024/01/12 02:24:51;;;;;;;124.97;50.60;;;0.60;97.10;;;;;;799565;178;26417;-74
2024/01/12 02:27:18;;;;;;;133.17;51.57;;;0.60;97.10;;;;;;799991;177;26425;-75
2024/01/12 02:29:45;;;;;;;142.17;51.17;;;0.60;97.20;;;;;;800890;178;27088;-75
2024/01/12 02:32:11;;;;;;;123.10;51.77;;;0.60;97.30;;;;;;803546;177;26458;-75
2024/01/12 02:34:38;;;;;;;129.20;50.40;;;0.70;97.40;;;;;;800935;177;26417;-74
2024/01/12 02:37:04;;;;;;;128.83;49.70;;;0.70;97.40;;;;;;798612;178;26422;-74
2024/01/12 02:39:31;;;;;;;125.87;49.17;;;0.70;97.40;;;;;;799152;178;26462;-75
2024/01/12 02:41:58;;;;;;;125.90;49.07;;;0.70;97.40;;;;;;795927;177;26505;-73
2024/01/12 02:44:24;;;;;;;125.17;49.47;;;0.70;97.40;;;;;;797868;177;27010;-75
2024/01/12 02:46:51;;;;;;;129.43;51.07;;;0.70;97.40;;;;;;801735;177;26436;-75
2024/01/12 02:49:17;;;;;;;143.03;53.77;;;0.70;97.50;;;;;;800129;177;27098;-75
2024/01/12 02:51:44;;;;;;;134.53;52.77;;;0.60;97.60;;;;;;799557;178;26526;-75
2024/01/12 02:54:10;;;;;;;141.13;54.37;;;0.60;97.90;;;;;;799646;178;26977;-75
2024/01/12 02:56:37;;;;;;;150.37;54.50;;;0.60;97.90;;;;;;799091;178;26481;-74
2024/01/12 02:59:04;;;;;;;139.20;53.60;;;0.60;98.00;;;;;;798473;177;26474;-72
2024/01/12 03:01:31;;;;;;;147.60;54.70;;;0.60;98.10;;;;;;802480;177;26494;-75
2024/01/12 03:03:57;;;;;;;154.80;57.90;;;0.60;98.10;;;;;;800707;177;26433;-73
2024/01/12 03:06:23;;;;;;;159.70;56.77;;;0.60;98.10;;;;;;798328;177;27028;-75
2024/01/12 03:08:50;;;;;;;166.00;62.57;;;0.70;98.10;;;;;;798350;177;26473;-75
2024/01/12 03:11:17;;;;;;;162.63;60.07;;;0.70;98.20;;;;;;803003;178;28095;-75
2024/01/12 03:13:43;;;;;;;169.03;61.00;;;0.70;98.20;;;;;;799370;177;26516;-74
2024/01/12 03:16:18;;;;;;;170.40;62.57;;;0.80;98.20;;;;;;800425;176;26493;-73
2024/01/12 03:18:44;;;;;;;164.33;61.87;;;0.80;98.30;;;;;;807061;176;27060;-75
2024/01/12 03:21:11;;;;;;;166.33;58.70;;;0.80;98.30;;;;;;801685;177;26485;-75
2024/01/12 03:23:37;;;;;;;154.10;58.63;;;0.80;98.30;;;;;;799978;177;26415;-75
2024/01/12 03:26:04;;;;;;;178.23;63.23;;;0.80;98.30;;;;;;802834;177;26454;-75
2024/01/12 03:28:31;;;;;;;182.53;64.37;;;0.70;98.40;;;;;;799241;178;26470;-75
2024/01/12 03:30:57;;;;;;;185.40;63.70;;;0.70;98.40;;;;;;800136;178;26510;-74
2024/01/12 03:33:24;;;;;;;169.43;62.03;;;0.80;98.40;;;;;;799559;177;26420;-74
2024/01/12 03:35:50;;;;;;;175.07;61.67;;;0.70;98.50;;;;;;800442;177;26956;-73
2024/01/12 03:38:17;;;;;;;172.50;63.87;;;0.70;98.60;;;;;;800115;178;26496;-75
2024/01/12 03:40:44;;;;;;;183.43;62.90;;;0.80;98.60;;;;;;805770;177;27037;-75
2024/01/12 03:43:10;;;;;;;188.67;65.87;;;0.70;98.70;;;;;;799224;177;27627;-74
2024/01/12 03:45:37;;;;;;;195.83;67.13;;;0.80;98.70;;;;;;801772;178;26976;-73
2024/01/12 03:48:03;;;;;;;200.40;66.63;;;0.80;98.80;;;;;;802099;178;26480;-73
2024/01/12 03:50:30;;;;;;;202.73;63.07;;;0.80;98.80;;;;;;799505;176;27063;-75
2024/01/12 03:52:57;;;;;;;200.10;69.13;;;0.80;98.90;;;;;;798473;177;26498;-75
2024/01/12 03:55:23;;;;;;;213.43;67.77;;;0.80;98.90;;;;;;799512;178;27060;-75
2024/01/12 03:57:50;;;;;;;214.93;68.30;;;0.80;99.00;;;;;;804366;177;26654;-72
2024/01/12 04:00:17;;;;;;;218.30;70.90;;;0.80;99.10;;;;;;804448;177;26542;-74
2024/01/12 04:02:43;;;;;;;237.07;74.50;;;0.80;99.20;;;;;;803815;177;27046;-74
2024/01/12 04:05:10;;;;;;;227.03;72.10;;;0.80;99.20;;;;;;794841;178;26422;-75
2024/01/12 04:07:36;;;;;;;226.13;70.60;;;0.80;99.20;;;;;;799606;178;27311;-75
2024/01/12 04:10:03;;;;;;;223.33;71.07;;;0.80;99.30;;;;;;803263;177;26502;-75
2024/01/12 04:12:30;;;;;;;204.77;65.93;;;0.80;99.30;;;;;;800861;177;26468;-73
2024/01/12 04:14:56;;;;;;;233.20;71.63;;;0.80;99.40;;;;;;795599;178;26493;-75
2024/01/12 04:17:23;;;;;;;228.00;72.03;;;0.80;99.30;;;;;;801493;177;26434;-75
2024/01/12 04:19:49;;;;;;;220.10;70.00;;;0.80;99.40;;;;;;802155;177;27053;-75
2024/01/12 04:22:16;;;;;;;219.67;70.30;;;0.80;99.40;;;;;;798209;178;26553;-75
2024/01/12 04:24:43;;;;;;;250.07;73.13;;;0.80;99.40;;;;;;801959;177;28107;-75
2024/01/12 04:27:09;;;;;;;214.63;67.30;;;0.80;99.50;;;;;;801564;178;26471;-72
2024/01/12 04:29:36;;;;;;;218.73;70.37;;;0.90;99.50;;;;;;802597;176;26434;-75
2024/01/12 04:32:02;;;;;;;238.73;70.53;;;0.90;99.60;;;;;;801388;177;26457;-75
2024/01/12 04:34:29;;;;;;;258.30;75.10;;;0.80;99.50;;;;;;805413;177;26431;-75
2024/01/12 04:36:56;;;;;;;242.60;70.97;;;0.90;99.60;;;;;;798743;177;27013;-75
2024/01/12 04:39:22;;;;;;;257.37;79.47;;;0.80;99.60;;;;;;798974;178;26453;-75
2024/01/12 04:41:49;;;;;;;245.70;74.27;;;0.80;99.70;;;;;;799979;178;26446;-72
2024/01/12 04:44:15;;;;;;;256.87;80.30;;;0.80;99.80;;;;;;801650;177;26425;-75
2024/01/12 04:46:42;;;;;;;274.20;77.10;;;0.80;99.80;;;;;;798407;177;26475;-75
2024/01/12 04:49:09;;;;;;;265.80;80.60;;;0.90;99.90;;;;;;799749;177;26964;-74
2024/01/12 04:51:35;;;;;;;268.50;77.27;;;0.90;99.90;;;;;;798428;177;26509;-73
2024/01/12 04:54:02;;;;;;;304.23;82.33;;;0.90;99.90;;;;;;804708;175;26471;-75
2024/01/12 04:56:28;;;;;;;280.73;76.00;;;0.90;99.90;;;;;;798893;178;26441;-75
2024/01/12 04:58:55;;;;;;;307.93;83.67;;;0.90;99.90;;;;;;797450;178;26464;-75
2024/01/12 05:01:22;;;;;;;299.50;80.17;;;0.90;99.90;;;;;;798825;177;26445;-72
2024/01/12 05:03:49;;;;;;;298.40;78.80;;;0.90;99.90;;;;;;802244;178;26976;-74
2024/01/12 05:06:16;;;;;;;298.60;84.63;;;0.90;99.90;;;;;;798236;177;26473;-75
2024/01/12 05:08:42;;;;;;;315.93;85.97;;;0.90;99.90;;;;;;798375;178;26430;-76
2024/01/12 05:11:09;;;;;;;344.77;83.93;;;0.90;99.90;;;;;;800577;177;26443;-72
2024/01/12 05:13:35;;;;;;;332.53;81.50;;;0.90;99.90;;;;;;798447;177;26581;-75
2024/01/12 05:16:02;;;;;;;337.47;86.60;;;0.90;99.90;;;;;;801916;177;26524;-75
2024/01/12 05:18:29;;;;;;;338.23;87.73;;;0.90;99.90;;;;;;803370;178;26494;-75
2024/01/12 05:20:55;;;;;;;360.83;93.90;;;0.90;99.90;;;;;;798638;178;27039;-72
2024/01/12 05:23:22;;;;;;;346.73;85.90;;;1.00;99.90;;;;;;798717;177;26522;-75
2024/01/12 05:25:48;;;;;;;320.80;84.40;;;1.00;99.90;;;;;;799359;177;28096;-75
2024/01/12 05:28:15;;;;;;;338.50;88.13;;;1.00;99.90;;;;;;799469;177;26472;-75
2024/01/12 05:30:42;;;;;;;333.47;83.63;;;1.00;99.90;;;;;;801802;177;26508;-75
2024/01/12 05:33:08;;;;;;;347.90;82.73;;;1.00;99.90;;;;;;799054;178;26432;-67
2024/01/12 05:35:35;;;;;;;393.27;90.13;;;1.00;99.90;;;;;;803631;177;26564;-70
2024/01/12 05:38:02;;;;;;;336.67;84.93;;;1.10;99.90;;;;;;801835;177;27009;-75
2024/01/12 05:40:28;;;;;;;350.10;80.27;;;1.10;99.90;;;;;;800478;176;27196;-75
2024/01/12 05:42:55;;;;;;;326.37;75.93;;;1.00;99.90;;;;;;803128;176;26439;-75
2024/01/12 05:45:21;;;;;;;334.80;80.13;;;1.00;99.90;;;;;;804426;177;28053;-76
2024/01/12 05:47:48;;;;;;;326.13;83.10;;;1.00;99.90;;;;;;795828;178;26991;-75
2024/01/12 05:50:14;;;;;;;342.53;82.90;;;0.90;99.90;;;;;;797709;178;26427;-73
2024/01/12 05:52:42;;;;;;;352.67;83.57;;;1.00;99.90;;;;;;799535;178;26996;-75
2024/01/12 05:55:08;;;;;;;362.70;87.20;;;0.90;99.90;;;;;;803822;177;26465;-76
2024/01/12 05:57:35;;;;;;;360.47;89.63;;;0.90;99.90;;;;;;805140;178;26472;-75
2024/01/12 06:00:04;;;;;;;339.03;81.90;;;0.90;99.90;;;;;;806290;178;27147;-75
2024/01/12 06:02:28;;;;;;;387.73;88.80;;;0.90;99.90;;;;;;785924;180;26453;-73
2024/01/12 06:04:55;;;;;;;373.87;90.03;;;1.00;99.90;;;;;;798057;177;26498;-75
2024/01/12 06:07:21;;;;;;;344.10;84.53;;;1.00;99.90;;;;;;801740;177;26506;-75
2024/01/12 06:09:48;;;;;;;323.37;82.63;;;1.00;99.90;;;;;;786616;180;26514;-75
2024/01/12 06:12:14;;;;;;;347.40;83.73;;;1.00;99.90;;;;;;791941;180;26508;-74
2024/01/12 06:14:41;;;;;;;341.43;85.73;;;1.00;99.90;;;;;;788405;180;26524;-75
2024/01/12 06:17:08;;;;;;;355.80;85.00;;;1.10;99.90;;;;;;787741;180;26682;-75
2024/01/12 06:19:34;;;;;;;361.77;88.40;;;1.00;99.90;;;;;;794028;177;27317;-75
2024/01/12 06:22:01;;;;;;;373.63;89.03;;;1.00;99.90;;;;;;785949;179;26541;-73
2024/01/12 06:24:27;;;;;;;361.93;81.63;;;1.10;99.90;;;;;;793844;177;26979;-75
2024/01/12 06:26:54;;;;;;;362.77;88.47;;;1.00;99.90;;;;;;785470;180;26536;-75
2024/01/12 06:29:21;;;;;;;339.93;84.40;;;1.10;99.90;;;;;;787879;181;26546;-75
2024/01/12 06:31:47;;;;;;;369.83;88.37;;;1.00;99.90;;;;;;787580;181;26533;-75
2024/01/12 06:34:14;;;;;;;356.83;84.07;;;1.00;99.90;;;;;;787833;181;26521;-74
2024/01/12 06:36:43;;;;;;;350.10;89.13;;;1.10;99.90;;;;;;787713;181;26515;-75
2024/01/12 06:39:10;;;;;;;367.83;83.77;;;1.10;99.90;;;;;;794218;180;27067;-75
2024/01/12 06:41:46;;;;;;;368.50;86.20;;;1.00;99.90;;;;;;787190;180;26452;-75
2024/01/12 06:44:10;;;;;;;366.03;86.47;;;1.10;99.90;;;;;;777469;180;26513;-74
2024/01/12 06:46:37;;;;;;;385.57;92.93;;;1.10;99.90;;;;;;769925;184;26514;-76
2024/01/12 06:49:04;;;;;;;344.70;83.70;;;1.20;99.90;;;;;;767535;184;26583;-75
2024/01/12 06:51:30;;;;;;;335.63;83.27;;;1.30;99.90;;;;;;773131;184;26491;-75
2024/01/12 06:53:57;;;;;;;336.43;82.50;;;1.30;99.90;;;;;;769711;183;26587;-75
2024/01/12 06:56:23;;;;;;;339.50;83.67;;;1.30;99.90;;;;;;768610;183;27017;-75
2024/01/12 06:58:50;;;;;;;314.53;80.83;;;1.30;99.90;;;;;;766940;183;26458;-75
2024/01/12 07:01:18;;;;;;;316.63;77.97;;;1.20;99.90;;;;;;778705;184;27044;-75
2024/01/12 07:03:44;;;;;;;327.73;79.60;;;1.20;99.90;;;;;;780995;180;26486;-75
2024/01/12 07:06:11;;;;;;;348.37;79.43;;;1.20;99.90;;;;;;782066;181;27112;-74
2024/01/12 07:08:37;;;;;;;289.30;71.93;;;1.30;99.90;;;;;;771967;184;26545;-75
2024/01/12 07:11:04;;;;;;;279.23;63.17;;;1.30;99.90;;;;;;781117;181;27004;-75
2024/01/12 07:13:30;;;;;;;264.53;66.03;;;1.30;99.90;;;;;;779297;181;27064;-74
2024/01/12 07:15:57;;;;;;;287.07;68.43;;;1.30;99.90;;;;;;774019;181;26550;-74
2024/01/12 07:18:24;;;;;;;252.73;65.50;;;1.30;99.90;;;;;;766961;185;27087;-75
2024/01/12 07:20:50;;;;;;;269.47;63.53;;;1.30;99.90;;;;;;763794;185;26515;-74
2024/01/12 07:23:17;;;;;;;257.00;66.97;;;1.30;99.90;;;;;;775602;181;27058;-75
2024/01/12 07:25:43;;;;;;;241.40;60.40;;;1.30;99.90;;;;;;781233;180;26471;-75
2024/01/12 07:28:10;;;;;;;233.77;57.27;;;1.30;99.90;;;;;;779032;180;27095;-74
2024/01/12 07:30:37;;;;;;;201.90;52.30;;;1.30;99.90;;;;;;778013;182;26527;-76
2024/01/12 07:33:03;;;;;;;218.90;54.27;;;1.30;99.90;;;;;;784446;180;26549;-75
2024/01/12 07:35:30;;;;;;;199.37;54.87;;;1.30;99.90;;;;;;783915;180;26635;-75
2024/01/12 07:37:56;;;;;;;211.53;56.33;;;1.30;99.90;;;;;;771531;186;28115;-75
2024/01/12 07:40:23;;;;;;;234.63;59.60;;;1.40;99.90;;;;;;777822;180;26533;-74
2024/01/12 07:42:50;;;;;;;215.73;54.73;;;1.30;99.90;;;;;;783840;182;27009;-75
2024/01/12 07:45:16;;;;;;;201.97;50.87;;;1.40;99.90;;;;;;782581;180;26515;-75
2024/01/12 07:47:43;;;;;;;178.80;47.90;;;1.40;99.90;;;;;;781326;181;26561;-75
2024/01/12 07:50:10;;;;;;;190.63;50.60;;;1.40;99.90;;;;;;790696;181;26520;-75
2024/01/12 07:52:36;;;;;;;225.30;57.47;;;1.40;99.90;;;;;;787414;180;27106;-75
2024/01/12 07:55:03;;;;;;;233.53;55.73;;;1.40;99.90;;;;;;770976;185;26536;-75
2024/01/12 07:57:30;;;;;;;151.20;40.80;;;1.40;99.90;;;;;;784900;181;26457;-75
2024/01/12 07:59:57;;;;;;;179.50;51.90;;;1.40;99.90;;;;;;775241;181;26493;-75
2024/01/12 08:02:23;;;;;;;158.10;47.57;;;1.50;99.90;;;;;;788020;180;26511;-75
2024/01/12 08:04:49;;;;;;;114.20;34.40;;;1.50;99.90;;;;;;777446;179;26500;-75
2024/01/12 08:07:16;;;;;;;169.63;48.87;;;1.50;99.90;;;;;;771147;184;26479;-76
2024/01/12 08:09:43;;;;;;;189.50;51.33;;;1.50;99.90;;;;;;773846;179;27016;-75
2024/01/12 08:12:09;;;;;;;198.90;54.07;;;1.60;99.90;;;;;;778021;181;26534;-75
2024/01/12 08:14:36;;;;;;;137.17;40.93;;;1.60;99.90;;;;;;781893;180;26551;-76
2024/01/12 08:17:02;;;;;;;148.10;44.63;;;1.60;99.90;;;;;;779451;181;26486;-75
2024/01/12 08:19:29;;;;;;;148.57;43.60;;;1.60;99.90;;;;;;784049;181;27073;-75
2024/01/12 08:21:56;;;;;;;173.93;47.77;;;1.60;99.90;;;;;;776454;184;26562;-75
2024/01/12 08:24:22;;;;;;;141.60;42.67;;;1.60;99.90;;;;;;792098;180;27081;-76
2024/01/12 08:26:49;;;;;;;133.13;42.13;;;1.60;99.90;;;;;;794405;179;26560;-75
2024/01/12 08:29:15;;;;;;;149.77;42.67;;;1.60;99.90;;;;;;788770;180;26452;-75
2024/01/12 08:31:42;;;;;;;174.30;44.83;;;1.60;99.90;;;;;;763758;185;27149;-75
2024/01/12 08:34:09;;;;;;;147.53;40.33;;;1.50;99.90;;;;;;775634;184;26507;-75
2024/01/12 08:36:35;;;;;;;131.03;40.40;;;1.50;99.90;;;;;;765352;185;26520;-75
2024/01/12 08:39:03;;;;;;;164.77;43.50;;;1.50;99.90;;;;;;774078;185;26964;-76
2024/01/12 08:41:30;;;;;;;166.80;42.07;;;1.60;99.90;;;;;;773610;184;27040;-75
2024/01/12 08:43:57;;;;;;;175.90;47.90;;;1.50;99.90;;;;;;793919;181;27040;-75
2024/01/12 08:46:24;;;;;;;178.13;49.33;;;1.50;99.90;;;;;;785181;180;26468;-75
2024/01/12 08:48:52;;;;;;;148.23;40.97;;;1.50;99.90;;;;;;784941;179;27045;-75
2024/01/12 08:51:17;;;;;;;149.03;41.87;;;1.50;99.90;;;;;;781490;179;26470;-74
2024/01/12 08:53:43;;;;;;;140.20;40.33;;;1.50;99.90;;;;;;768618;183;26491;-74
2024/01/12 08:56:10;;;;;;;159.33;41.60;;;1.50;99.90;;;;;;768501;184;26539;-74
2024/01/12 08:58:38;;;;;;;153.23;41.47;;;1.50;99.90;;;;;;767772;183;26648;-75
2024/01/12 09:01:04;;;;;;;144.40;40.90;;;1.50;99.90;;;;;;769830;181;28320;-74
2024/01/12 09:03:30;;;;;;;141.53;40.90;;;1.50;99.90;;;;;;769857;183;27198;-74
2024/01/12 09:05:57;;;;;;;160.80;42.40;;;1.50;99.90;;;;;;767233;184;26541;-75
2024/01/12 09:08:24;;;;;;;155.70;41.03;;;1.50;99.90;;;;;;771849;183;26467;-74
2024/01/12 09:10:50;;;;;;;142.97;39.93;;;1.50;99.90;;;;;;781926;180;26566;-75
2024/01/12 09:13:17;;;;;;;167.87;42.40;;;1.50;99.90;;;;;;779402;180;27097;-75
2024/01/12 09:15:44;;;;;;;147.20;41.33;;;1.50;99.90;;;;;;771223;182;26555;-75
2024/01/12 09:18:10;;;;;;;165.40;44.53;;;1.50;99.90;;;;;;771404;183;26549;-75
2024/01/12 09:20:37;;;;;;;156.33;42.87;;;1.50;99.90;;;;;;779564;179;26525;-75
2024/01/12 09:23:04;;;;;;;149.60;43.13;;;1.60;99.90;;;;;;781110;179;26548;-76
2024/01/12 09:25:32;;;;;;;139.13;40.53;;;1.60;99.90;;;;;;781120;180;26531;-75
2024/01/12 09:27:57;;;;;;;121.80;37.83;;;1.70;99.90;;;;;;779342;180;27140;-75
2024/01/12 09:30:23;;;;;;;125.40;41.40;;;1.70;99.90;;;;;;767685;183;26542;-75
2024/01/12 09:32:50;;;;;;;114.47;37.90;;;1.70;99.90;;;;;;767313;184;27156;-75
2024/01/12 09:35:17;;;;;;;127.97;41.13;;;1.80;99.90;;;;;;767201;183;26537;-75
2024/01/12 09:37:43;;;;;;;120.70;37.80;;;1.80;99.90;;;;;;778178;180;28068;-75
2024/01/12 09:40:11;;;;;;;117.40;37.43;;;1.90;99.90;;;;;;779120;180;26526;-75
2024/01/12 09:42:38;;;;;;;97.47;36.77;;;1.90;99.90;;;;;;778205;180;26515;-75
2024/01/12 09:45:04;;;;;;;99.13;38.27;;;1.90;99.90;;;;;;766286;184;27060;-75
2024/01/12 09:47:31;;;;;;;105.67;36.97;;;1.90;99.90;;;;;;778481;180;26548;-75
2024/01/12 09:49:58;;;;;;;117.50;40.47;;;1.80;99.90;;;;;;778770;180;27080;-75
2024/01/12 09:52:25;;;;;;;115.90;41.60;;;1.80;99.90;;;;;;778065;180;26527;-75
2024/01/12 09:54:53;;;;;;;114.47;39.03;;;1.90;99.90;;;;;;778338;179;26536;-75
2024/01/12 09:57:19;;;;;;;112.53;38.23;;;1.80;99.90;;;;;;778228;180;26523;-74
2024/01/12 09:59:47;;;;;;;104.37;38.20;;;1.80;99.90;;;;;;776414;182;26487;-75
2024/01/12 10:02:13;;;;;;;105.93;36.90;;;1.90;99.90;;;;;;780782;181;26533;-75
2024/01/12 10:04:40;;;;;;;107.27;39.07;;;1.90;99.90;;;;;;779981;179;26490;-75
2024/01/12 10:07:07;;;;;;;102.73;37.17;;;1.80;99.80;;;;;;780343;181;26502;-75
2024/01/12 10:09:34;;;;;;;119.03;37.47;;;1.80;99.80;;;;;;766272;184;26573;-75
2024/01/12 10:12:02;;;;;;;97.97;36.00;;;1.90;99.90;;;;;;766315;184;27082;-75
2024/01/12 10:14:28;;;;;;;98.10;36.67;;;1.90;99.90;;;;;;766702;183;27098;-75
2024/01/12 10:16:56;;;;;;;102.67;36.30;;;1.90;99.90;;;;;;766515;184;26556;-75
2024/01/12 10:19:23;;;;;;;96.10;34.03;;;1.90;99.90;;;;;;779970;181;26523;-75
2024/01/12 10:21:49;;;;;;;88.67;31.93;;;2.00;99.90;;;;;;779306;180;26506;-75
2024/01/12 10:24:17;;;;;;;88.50;32.00;;;2.00;99.90;;;;;;779872;181;27113;-75
2024/01/12 10:26:43;;;;;;;82.03;33.57;;;2.00;99.90;;;;;;780517;179;26475;-75
2024/01/12 10:29:11;;;;;;;91.07;32.57;;;2.00;99.90;;;;;;768991;183;27106;-75
2024/01/12 10:31:39;;;;;;;92.03;34.67;;;2.00;99.80;;;;;;770836;183;26532;-75
2024/01/12 10:34:05;;;;;;;81.60;31.33;;;2.00;99.80;;;;;;780608;178;27733;-75
2024/01/12 10:36:31;;;;;;;96.30;33.80;;;2.00;99.70;;;;;;767509;184;27240;-75
2024/01/12 10:38:58;;;;;;;93.53;33.13;;;2.00;99.60;;;;;;772557;183;26519;-75
2024/01/12 10:41:25;;;;;;;90.50;31.97;;;2.00;99.60;;;;;;770995;183;26538;-75
2024/01/12 10:43:51;;;;;;;105.43;34.63;;;1.90;99.70;;;;;;772329;183;26529;-75
2024/01/12 10:46:19;;;;;;;115.30;37.17;;;1.90;99.60;;;;;;777443;182;26970;-75
2024/01/12 10:48:46;;;;;;;127.93;39.30;;;1.80;99.60;;;;;;779513;180;26555;-74
2024/01/12 10:51:13;;;;;;;129.73;39.53;;;1.80;99.70;;;;;;769086;183;26499;-75
2024/01/12 10:53:39;;;;;;;127.70;39.53;;;1.80;99.70;;;;;;777289;178;28669;-75
2024/01/12 10:56:06;;;;;;;135.50;42.83;;;1.80;99.90;;;;;;782937;180;26528;-76
2024/01/12 10:58:34;;;;;;;120.43;39.23;;;1.90;99.90;;;;;;786758;180;26503;-76
2024/01/12 11:00:59;;;;;;;139.80;42.63;;;1.90;99.90;;;;;;767182;184;26613;-76
2024/01/12 11:03:25;;;;;;;134.17;44.53;;;1.90;99.90;;;;;;776259;184;26591;-76
2024/01/12 11:05:52;;;;;;;137.30;42.53;;;2.00;99.90;;;;;;772504;181;26444;-76
2024/01/12 11:08:20;;;;;;;116.90;39.20;;;2.00;99.90;;;;;;764964;185;27127;-76
2024/01/12 11:10:46;;;;;;;138.03;42.37;;;1.90;99.90;;;;;;769270;184;26462;-76
2024/01/12 11:13:14;;;;;;;151.10;44.63;;;2.00;99.90;;;;;;783236;180;26546;-76
2024/01/12 11:15:40;;;;;;;135.27;41.80;;;2.00;99.90;;;;;;779460;182;26998;-76
2024/01/12 11:18:06;;;;;;;138.67;39.20;;;2.00;99.90;;;;;;784188;180;26478;-75
2024/01/12 11:20:33;;;;;;;133.77;41.57;;;2.00;99.90;;;;;;779040;180;28099;-76
2024/01/12 11:22:59;;;;;;;134.87;41.60;;;2.00;99.90;;;;;;783513;180;26477;-76
2024/01/12 11:25:26;;;;;;;154.33;47.53;;;2.00;99.80;;;;;;769613;184;26525;-76
2024/01/12 11:27:53;;;;;;;146.77;43.20;;;2.00;99.80;;;;;;780495;181;27052;-76
2024/01/12 11:30:19;;;;;;;143.97;43.67;;;2.00;99.90;;;;;;788839;177;26456;-76
2024/01/12 11:32:46;;;;;;;156.80;46.93;;;2.00;99.90;;;;;;778517;181;26628;-76
2024/01/12 11:35:14;;;;;;;152.63;43.47;;;2.00;99.90;;;;;;768742;181;26449;-76
2024/01/12 11:37:41;;;;;;;156.57;45.17;;;2.00;99.90;;;;;;787478;180;26460;-76
2024/01/12 11:40:09;;;;;;;154.97;45.80;;;2.00;99.90;;;;;;789178;180;26465;-75
2024/01/12 11:42:36;;;;;;;151.30;42.70;;;2.00;99.90;;;;;;784395;181;26473;-76
2024/01/12 11:45:03;;;;;;;138.60;41.47;;;2.00;99.90;;;;;;771934;183;27045;-76
2024/01/12 11:47:29;;;;;;;143.77;41.10;;;1.90;99.90;;;;;;773105;182;26479;-75
2024/01/12 11:49:56;;;;;;;149.33;43.13;;;2.00;99.90;;;;;;782004;181;26501;-76
2024/01/12 11:52:23;;;;;;;188.20;49.97;;;2.00;99.90;;;;;;782213;182;26504;-76
2024/01/12 11:54:49;;;;;;;176.30;45.07;;;2.00;99.90;;;;;;776649;184;26490;-76
2024/01/12 11:57:20;;;;;;;187.83;52.53;;;2.00;99.90;;;;;;789698;180;27053;-76
2024/01/12 11:59:42;;;;;;;182.53;48.87;;;2.00;99.90;;;;;;782809;179;26452;-76
2024/01/12 12:02:09;;;;;;;205.63;52.83;;;2.00;99.90;;;;;;790644;181;26444;-76
2024/01/12 12:04:36;;;;;;;164.47;43.90;;;2.00;99.90;;;;;;780678;181;26460;-76
2024/01/12 12:07:02;;;;;;;197.80;52.60;;;1.90;99.90;;;;;;768116;184;26552;-76
2024/01/12 12:09:29;;;;;;;171.63;46.17;;;1.90;99.90;;;;;;772869;185;26547;-75
2024/01/12 12:11:55;;;;;;;208.60;53.33;;;1.80;99.90;;;;;;787612;180;26528;-76
2024/01/12 12:14:22;;;;;;;167.00;45.97;;;1.80;99.90;;;;;;779325;180;27091;-76
2024/01/12 12:16:48;;;;;;;181.83;50.40;;;1.80;99.90;;;;;;763412;185;26545;-76
2024/01/12 12:19:15;;;;;;;153.87;44.17;;;1.90;99.90;;;;;;763132;185;27085;-75
2024/01/12 12:21:42;;;;;;;166.63;44.23;;;1.90;99.90;;;;;;772557;184;26592;-75
2024/01/12 12:24:08;;;;;;;181.33;46.70;;;1.90;99.90;;;;;;774224;183;27094;-76